MMNL/NLD METAR and TAF weather

Enter ICAO airport designator
Station Type Date Time Source
MMNL METAR 2019/08/25 00:40 UTC NOAA

MMNL 250040Z 12010KT 10SM SCT080 BKN200 31/23 A2983 RMK 8/063


Station Type Date Time Source
MMNL Decoded METAR 2019/08/25 00:40 UTC NOAA

Station name not available
Aug 24, 2019 - 08:40 PM EDT / 2019.08.25 0040 UTC
Wind: from the ESE (120 degrees) at 12 MPH (10 KT):0
Visibility: 10 mile(s):0
Sky conditions: mostly cloudy
Temperature: 87 F (31 C)
Heat index: 93.9 F (34.4 C):1
Dew Point: 73 F (23 C)
Relative Humidity: 62%
Pressure (altimeter): 29.83 in. Hg (1010 hPa)
ob: MMNL 250040Z 12010KT 10SM SCT080 BKN200 31/23 A2983 RMK 8/063
cycle: 0

Station Type Date Time Source
MMNL TAF 2019/08/25 06:39 UTC NOAA

TAF MMNL 250533Z 2506/2606 12010KT P6SM SCT080 BKN200
TEMPO 2510/2514 5SM HZ BKN020 BKN200
FM251900 14010KT P6SM SCT200
BECMG 2601/2602 12006KT

Example: see airport list